sensor_id;sensor_type;location;lat;lon;timestamp;P1;durP1;ratioP1;P2;durP2;ratioP2
505;SDS011;551;48.524;9.056;2023-10-19T00:01:20;27.43;;;20.20;;
505;SDS011;551;48.524;9.056;2023-10-19T00:03:50;22.80;;;18.37;;
505;SDS011;551;48.524;9.056;2023-10-19T00:06:18;28.13;;;19.70;;
505;SDS011;551;48.524;9.056;2023-10-19T00:08:43;30.97;;;20.90;;
505;SDS011;551;48.524;9.056;2023-10-19T00:11:09;26.17;;;19.40;;
505;SDS011;551;48.524;9.056;2023-10-19T00:13:46;27.97;;;21.77;;
505;SDS011;551;48.524;9.056;2023-10-19T00:16:14;27.60;;;21.33;;
505;SDS011;551;48.524;9.056;2023-10-19T00:18:47;26.17;;;19.77;;
505;SDS011;551;48.524;9.056;2023-10-19T00:21:13;25.63;;;19.73;;
505;SDS011;551;48.524;9.056;2023-10-19T00:23:49;30.37;;;20.60;;
505;SDS011;551;48.524;9.056;2023-10-19T00:26:20;30.60;;;21.17;;
505;SDS011;551;48.524;9.056;2023-10-19T00:28:46;29.30;;;19.20;;
505;SDS011;551;48.524;9.056;2023-10-19T00:31:18;36.63;;;20.27;;
505;SDS011;551;48.524;9.056;2023-10-19T00:33:45;28.53;;;19.97;;
505;SDS011;551;48.524;9.056;2023-10-19T00:36:11;34.27;;;22.07;;
505;SDS011;551;48.524;9.056;2023-10-19T00:38:40;33.20;;;20.50;;
505;SDS011;551;48.524;9.056;2023-10-19T00:41:20;24.00;;;17.63;;
505;SDS011;551;48.524;9.056;2023-10-19T00:43:49;24.20;;;18.90;;
505;SDS011;551;48.524;9.056;2023-10-19T00:46:16;26.20;;;19.03;;
505;SDS011;551;48.524;9.056;2023-10-19T00:48:47;32.23;;;21.37;;
505;SDS011;551;48.524;9.056;2023-10-19T00:51:14;26.30;;;18.80;;
505;SDS011;551;48.524;9.056;2023-10-19T00:53:57;26.90;;;19.73;;
505;SDS011;551;48.524;9.056;2023-10-19T00:56:26;25.43;;;19.23;;
505;SDS011;551;48.524;9.056;2023-10-19T00:58:56;25.13;;;19.67;;
505;SDS011;551;48.524;9.056;2023-10-19T01:01:26;24.83;;;17.90;;
505;SDS011;551;48.524;9.056;2023-10-19T01:03:54;25.10;;;18.80;;
505;SDS011;551;48.524;9.056;2023-10-19T01:06:22;28.43;;;19.57;;
505;SDS011;551;48.524;9.056;2023-10-19T01:08:48;26.00;;;19.17;;
505;SDS011;551;48.524;9.056;2023-10-19T01:11:16;26.53;;;18.00;;
505;SDS011;551;48.524;9.056;2023-10-19T01:13:45;24.37;;;18.83;;
505;SDS011;551;48.524;9.056;2023-10-19T01:16:13;31.70;;;20.93;;
505;SDS011;551;48.524;9.056;2023-10-19T01:18:45;25.60;;;19.13;;
505;SDS011;551;48.524;9.056;2023-10-19T01:21:11;27.70;;;20.30;;
505;SDS011;551;48.524;9.056;2023-10-19T01:23:37;26.30;;;19.77;;
505;SDS011;551;48.524;9.056;2023-10-19T01:26:03;23.53;;;18.30;;
505;SDS011;551;48.524;9.056;2023-10-19T01:28:36;28.13;;;20.20;;
505;SDS011;551;48.524;9.056;2023-10-19T01:31:06;27.43;;;19.00;;
505;SDS011;551;48.524;9.056;2023-10-19T01:33:53;26.93;;;19.73;;
505;SDS011;551;48.524;9.056;2023-10-19T01:36:23;27.47;;;19.80;;
505;SDS011;551;48.524;9.056;2023-10-19T01:38:49;26.50;;;20.43;;
505;SDS011;551;48.524;9.056;2023-10-19T01:41:18;28.27;;;19.43;;
505;SDS011;551;48.524;9.056;2023-10-19T01:43:46;22.43;;;18.23;;
505;SDS011;551;48.524;9.056;2023-10-19T01:46:16;27.13;;;19.03;;
505;SDS011;551;48.524;9.056;2023-10-19T01:48:50;24.90;;;18.87;;
505;SDS011;551;48.524;9.056;2023-10-19T01:51:21;31.53;;;19.57;;
505;SDS011;551;48.524;9.056;2023-10-19T01:53:48;25.90;;;18.53;;
505;SDS011;551;48.524;9.056;2023-10-19T01:56:15;21.47;;;16.97;;
505;SDS011;551;48.524;9.056;2023-10-19T01:58:42;25.07;;;19.03;;
505;SDS011;551;48.524;9.056;2023-10-19T02:01:11;28.23;;;17.77;;
505;SDS011;551;48.524;9.056;2023-10-19T02:03:38;27.90;;;18.03;;
505;SDS011;551;48.524;9.056;2023-10-19T02:06:08;23.60;;;18.90;;
505;SDS011;551;48.524;9.056;2023-10-19T02:08:44;25.80;;;19.70;;
505;SDS011;551;48.524;9.056;2023-10-19T02:11:21;25.80;;;17.50;;
505;SDS011;551;48.524;9.056;2023-10-19T02:13:51;21.63;;;17.10;;
505;SDS011;551;48.524;9.056;2023-10-19T02:16:18;22.53;;;18.80;;
505;SDS011;551;48.524;9.056;2023-10-19T02:18:48;21.97;;;17.90;;
505;SDS011;551;48.524;9.056;2023-10-19T02:21:15;24.00;;;18.27;;
505;SDS011;551;48.524;9.056;2023-10-19T02:23:47;19.47;;;16.33;;
505;SDS011;551;48.524;9.056;2023-10-19T02:26:16;23.83;;;19.43;;
505;SDS011;551;48.524;9.056;2023-10-19T02:28:46;26.63;;;17.77;;
505;SDS011;551;48.524;9.056;2023-10-19T02:31:12;26.40;;;17.40;;
505;SDS011;551;48.524;9.056;2023-10-19T02:33:43;35.43;;;19.97;;
505;SDS011;551;48.524;9.056;2023-10-19T02:36:16;24.60;;;18.33;;
505;SDS011;551;48.524;9.056;2023-10-19T02:38:44;25.47;;;17.80;;
505;SDS011;551;48.524;9.056;2023-10-19T02:41:14;26.17;;;19.43;;
505;SDS011;551;48.524;9.056;2023-10-19T02:43:41;25.97;;;18.63;;
505;SDS011;551;48.524;9.056;2023-10-19T02:46:10;22.67;;;16.60;;
505;SDS011;551;48.524;9.056;2023-10-19T02:48:38;23.00;;;18.00;;
505;SDS011;551;48.524;9.056;2023-10-19T02:51:04;26.60;;;18.20;;
505;SDS011;551;48.524;9.056;2023-10-19T02:53:35;22.33;;;18.40;;
505;SDS011;551;48.524;9.056;2023-10-19T02:56:12;28.60;;;19.70;;
505;SDS011;551;48.524;9.056;2023-10-19T02:58:41;24.00;;;17.33;;
505;SDS011;551;48.524;9.056;2023-10-19T03:01:19;23.83;;;17.10;;
505;SDS011;551;48.524;9.056;2023-10-19T03:03:52;27.90;;;18.47;;
505;SDS011;551;48.524;9.056;2023-10-19T03:06:22;24.93;;;18.37;;
505;SDS011;551;48.524;9.056;2023-10-19T03:08:48;25.23;;;17.97;;
505;SDS011;551;48.524;9.056;2023-10-19T03:11:20;23.93;;;17.80;;
505;SDS011;551;48.524;9.056;2023-10-19T03:13:46;24.60;;;17.13;;
505;SDS011;551;48.524;9.056;2023-10-19T03:16:15;26.43;;;19.47;;
505;SDS011;551;48.524;9.056;2023-10-19T03:18:40;24.00;;;17.93;;
505;SDS011;551;48.524;9.056;2023-10-19T03:21:06;23.57;;;17.40;;
505;SDS011;551;48.524;9.056;2023-10-19T03:23:32;28.70;;;20.37;;
505;SDS011;551;48.524;9.056;2023-10-19T03:25:59;29.33;;;18.93;;
505;SDS011;551;48.524;9.056;2023-10-19T03:28:48;26.53;;;18.23;;
505;SDS011;551;48.524;9.056;2023-10-19T03:31:20;28.00;;;19.60;;
505;SDS011;551;48.524;9.056;2023-10-19T03:33:46;24.53;;;17.90;;
505;SDS011;551;48.524;9.056;2023-10-19T03:36:19;27.43;;;19.60;;
505;SDS011;551;48.524;9.056;2023-10-19T03:38:45;27.40;;;18.10;;
505;SDS011;551;48.524;9.056;2023-10-19T03:41:11;28.80;;;18.63;;
505;SDS011;551;48.524;9.056;2023-10-19T03:43:36;29.10;;;18.20;;
505;SDS011;551;48.524;9.056;2023-10-19T03:46:05;28.43;;;19.40;;
505;SDS011;551;48.524;9.056;2023-10-19T03:48:54;30.70;;;19.40;;
505;SDS011;551;48.524;9.056;2023-10-19T03:51:24;27.63;;;18.83;;
505;SDS011;551;48.524;9.056;2023-10-19T03:53:51;41.30;;;19.80;;
505;SDS011;551;48.524;9.056;2023-10-19T03:56:23;25.33;;;18.47;;
505;SDS011;551;48.524;9.056;2023-10-19T03:58:49;27.30;;;19.17;;
505;SDS011;551;48.524;9.056;2023-10-19T04:01:16;37.07;;;19.50;;
505;SDS011;551;48.524;9.056;2023-10-19T04:03:44;42.90;;;20.00;;
505;SDS011;551;48.524;9.056;2023-10-19T04:06:10;38.23;;;19.13;;
505;SDS011;551;48.524;9.056;2023-10-19T04:08:39;23.80;;;18.60;;
505;SDS011;551;48.524;9.056;2023-10-19T04:11:06;24.70;;;18.10;;
505;SDS011;551;48.524;9.056;2023-10-19T04:13:46;24.43;;;18.40;;
505;SDS011;551;48.524;9.056;2023-10-19T04:16:12;27.30;;;18.10;;
505;SDS011;551;48.524;9.056;2023-10-19T04:18:39;22.80;;;17.10;;
505;SDS011;551;48.524;9.056;2023-10-19T04:21:09;28.40;;;19.43;;
505;SDS011;551;48.524;9.056;2023-10-19T04:23:34;24.30;;;17.43;;
505;SDS011;551;48.524;9.056;2023-10-19T04:26:00;25.93;;;17.00;;
505;SDS011;551;48.524;9.056;2023-10-19T04:28:41;23.17;;;17.10;;
505;SDS011;551;48.524;9.056;2023-10-19T04:31:11;20.20;;;16.07;;
505;SDS011;551;48.524;9.056;2023-10-19T04:33:41;22.43;;;17.13;;
505;SDS011;551;48.524;9.056;2023-10-19T04:36:13;18.73;;;15.73;;
505;SDS011;551;48.524;9.056;2023-10-19T04:38:39;22.03;;;15.00;;
505;SDS011;551;48.524;9.056;2023-10-19T04:41:06;21.40;;;17.13;;
505;SDS011;551;48.524;9.056;2023-10-19T04:43:33;23.27;;;16.80;;
505;SDS011;551;48.524;9.056;2023-10-19T04:46:00;19.80;;;16.00;;
505;SDS011;551;48.524;9.056;2023-10-19T04:48:32;20.40;;;16.17;;
505;SDS011;551;48.524;9.056;2023-10-19T04:50:58;25.80;;;17.03;;
505;SDS011;551;48.524;9.056;2023-10-19T04:53:23;23.23;;;16.60;;
505;SDS011;551;48.524;9.056;2023-10-19T04:55:49;24.00;;;18.73;;
505;SDS011;551;48.524;9.056;2023-10-19T04:58:15;24.63;;;17.50;;
505;SDS011;551;48.524;9.056;2023-10-19T05:00:40;25.13;;;17.00;;
505;SDS011;551;48.524;9.056;2023-10-19T05:03:06;26.67;;;18.20;;
505;SDS011;551;48.524;9.056;2023-10-19T05:05:32;21.63;;;17.47;;
505;SDS011;551;48.524;9.056;2023-10-19T05:07:57;20.77;;;16.47;;
505;SDS011;551;48.524;9.056;2023-10-19T05:10:25;23.93;;;17.27;;
505;SDS011;551;48.524;9.056;2023-10-19T05:12:51;26.07;;;17.20;;
505;SDS011;551;48.524;9.056;2023-10-19T05:15:20;22.53;;;15.67;;
505;SDS011;551;48.524;9.056;2023-10-19T05:17:45;26.10;;;17.73;;
505;SDS011;551;48.524;9.056;2023-10-19T05:20:11;28.13;;;17.57;;
505;SDS011;551;48.524;9.056;2023-10-19T05:22:36;23.20;;;18.20;;
505;SDS011;551;48.524;9.056;2023-10-19T05:25:02;27.20;;;16.77;;
505;SDS011;551;48.524;9.056;2023-10-19T05:27:28;24.70;;;17.80;;
505;SDS011;551;48.524;9.056;2023-10-19T05:29:54;33.37;;;21.30;;
505;SDS011;551;48.524;9.056;2023-10-19T05:32:20;38.47;;;21.50;;
505;SDS011;551;48.524;9.056;2023-10-19T05:34:46;29.03;;;19.63;;
505;SDS011;551;48.524;9.056;2023-10-19T05:37:12;23.90;;;17.90;;
505;SDS011;551;48.524;9.056;2023-10-19T05:39:37;28.83;;;19.80;;
505;SDS011;551;48.524;9.056;2023-10-19T05:42:03;26.13;;;18.30;;
505;SDS011;551;48.524;9.056;2023-10-19T05:44:29;26.53;;;18.83;;
505;SDS011;551;48.524;9.056;2023-10-19T05:46:55;29.50;;;17.67;;
505;SDS011;551;48.524;9.056;2023-10-19T05:49:21;26.97;;;18.63;;
505;SDS011;551;48.524;9.056;2023-10-19T05:51:49;25.93;;;18.90;;
505;SDS011;551;48.524;9.056;2023-10-19T05:54:14;29.83;;;17.70;;
505;SDS011;551;48.524;9.056;2023-10-19T05:56:40;28.20;;;19.57;;
505;SDS011;551;48.524;9.056;2023-10-19T05:59:05;28.67;;;18.57;;
505;SDS011;551;48.524;9.056;2023-10-19T06:01:31;28.43;;;18.97;;
505;SDS011;551;48.524;9.056;2023-10-19T06:03:57;32.60;;;20.97;;
505;SDS011;551;48.524;9.056;2023-10-19T06:06:23;27.13;;;19.00;;
505;SDS011;551;48.524;9.056;2023-10-19T06:08:48;27.13;;;18.20;;
505;SDS011;551;48.524;9.056;2023-10-19T06:11:18;25.20;;;17.77;;
505;SDS011;551;48.524;9.056;2023-10-19T06:13:47;24.77;;;16.47;;
505;SDS011;551;48.524;9.056;2023-10-19T06:16:13;20.73;;;15.30;;
505;SDS011;551;48.524;9.056;2023-10-19T06:18:39;20.73;;;14.40;;
505;SDS011;551;48.524;9.056;2023-10-19T06:21:08;18.37;;;14.43;;
505;SDS011;551;48.524;9.056;2023-10-19T06:23:34;15.80;;;12.27;;
505;SDS011;551;48.524;9.056;2023-10-19T06:26:08;19.17;;;13.30;;
505;SDS011;551;48.524;9.056;2023-10-19T06:28:36;20.20;;;13.40;;
505;SDS011;551;48.524;9.056;2023-10-19T06:31:04;19.83;;;15.00;;
505;SDS011;551;48.524;9.056;2023-10-19T06:33:30;24.80;;;16.80;;
505;SDS011;551;48.524;9.056;2023-10-19T06:35:58;27.63;;;15.60;;
505;SDS011;551;48.524;9.056;2023-10-19T06:38:24;17.40;;;12.97;;
505;SDS011;551;48.524;9.056;2023-10-19T06:40:50;20.23;;;14.23;;
505;SDS011;551;48.524;9.056;2023-10-19T06:43:16;20.00;;;13.20;;
505;SDS011;551;48.524;9.056;2023-10-19T06:45:43;17.30;;;12.27;;
505;SDS011;551;48.524;9.056;2023-10-19T06:48:09;18.67;;;13.40;;
505;SDS011;551;48.524;9.056;2023-10-19T06:50:36;16.17;;;13.27;;
505;SDS011;551;48.524;9.056;2023-10-19T06:53:02;16.07;;;12.53;;
505;SDS011;551;48.524;9.056;2023-10-19T06:55:30;18.60;;;12.93;;
505;SDS011;551;48.524;9.056;2023-10-19T06:57:56;14.97;;;12.00;;
505;SDS011;551;48.524;9.056;2023-10-19T07:00:22;17.47;;;12.10;;
505;SDS011;551;48.524;9.056;2023-10-19T07:02:52;16.33;;;11.70;;
505;SDS011;551;48.524;9.056;2023-10-19T07:05:19;13.53;;;11.23;;
505;SDS011;551;48.524;9.056;2023-10-19T07:07:49;15.10;;;12.27;;
505;SDS011;551;48.524;9.056;2023-10-19T07:10:17;13.40;;;11.30;;
505;SDS011;551;48.524;9.056;2023-10-19T07:12:52;14.83;;;11.90;;
505;SDS011;551;48.524;9.056;2023-10-19T07:15:19;13.87;;;11.73;;
505;SDS011;551;48.524;9.056;2023-10-19T07:17:47;14.83;;;13.23;;
505;SDS011;551;48.524;9.056;2023-10-19T07:20:13;20.40;;;14.37;;
505;SDS011;551;48.524;9.056;2023-10-19T07:23:02;13.33;;;11.90;;
505;SDS011;551;48.524;9.056;2023-10-19T07:25:34;14.17;;;11.13;;
505;SDS011;551;48.524;9.056;2023-10-19T07:28:08;16.67;;;11.73;;
505;SDS011;551;48.524;9.056;2023-10-19T07:30:34;15.60;;;11.90;;
505;SDS011;551;48.524;9.056;2023-10-19T07:33:00;18.40;;;12.13;;
505;SDS011;551;48.524;9.056;2023-10-19T07:35:26;13.83;;;11.17;;
505;SDS011;551;48.524;9.056;2023-10-19T07:37:52;15.80;;;12.60;;
505;SDS011;551;48.524;9.056;2023-10-19T07:40:19;15.83;;;10.73;;
505;SDS011;551;48.524;9.056;2023-10-19T07:42:45;11.57;;;10.37;;
505;SDS011;551;48.524;9.056;2023-10-19T07:45:11;13.20;;;10.40;;
505;SDS011;551;48.524;9.056;2023-10-19T07:47:40;13.70;;;10.77;;
505;SDS011;551;48.524;9.056;2023-10-19T07:50:12;13.67;;;10.53;;
505;SDS011;551;48.524;9.056;2023-10-19T07:52:50;14.27;;;10.30;;
505;SDS011;551;48.524;9.056;2023-10-19T07:55:17;13.57;;;10.67;;
505;SDS011;551;48.524;9.056;2023-10-19T07:57:43;13.40;;;12.10;;
505;SDS011;551;48.524;9.056;2023-10-19T08:00:10;18.00;;;10.23;;
505;SDS011;551;48.524;9.056;2023-10-19T08:02:39;10.53;;;9.23;;
505;SDS011;551;48.524;9.056;2023-10-19T08:05:08;16.87;;;10.17;;
505;SDS011;551;48.524;9.056;2023-10-19T08:07:36;15.00;;;10.70;;
505;SDS011;551;48.524;9.056;2023-10-19T08:10:04;15.60;;;9.80;;
505;SDS011;551;48.524;9.056;2023-10-19T08:12:31;12.30;;;10.90;;
505;SDS011;551;48.524;9.056;2023-10-19T08:15:00;9.90;;;8.90;;
505;SDS011;551;48.524;9.056;2023-10-19T08:17:26;11.60;;;8.53;;
505;SDS011;551;48.524;9.056;2023-10-19T08:19:52;10.13;;;9.03;;
505;SDS011;551;48.524;9.056;2023-10-19T08:22:17;10.07;;;8.00;;
505;SDS011;551;48.524;9.056;2023-10-19T08:24:44;8.57;;;7.77;;
505;SDS011;551;48.524;9.056;2023-10-19T08:27:10;10.43;;;8.57;;
505;SDS011;551;48.524;9.056;2023-10-19T08:29:38;9.90;;;8.90;;
505;SDS011;551;48.524;9.056;2023-10-19T08:32:03;9.83;;;8.80;;
505;SDS011;551;48.524;9.056;2023-10-19T08:34:29;10.50;;;7.70;;
505;SDS011;551;48.524;9.056;2023-10-19T08:37:00;8.37;;;7.50;;
505;SDS011;551;48.524;9.056;2023-10-19T08:39:25;11.30;;;8.00;;
505;SDS011;551;48.524;9.056;2023-10-19T08:41:52;8.73;;;7.50;;
505;SDS011;551;48.524;9.056;2023-10-19T08:44:19;8.80;;;7.77;;
505;SDS011;551;48.524;9.056;2023-10-19T08:46:45;13.90;;;8.50;;
505;SDS011;551;48.524;9.056;2023-10-19T08:49:12;7.83;;;7.03;;
505;SDS011;551;48.524;9.056;2023-10-19T08:51:39;8.53;;;7.33;;
505;SDS011;551;48.524;9.056;2023-10-19T08:54:09;9.07;;;7.40;;
505;SDS011;551;48.524;9.056;2023-10-19T08:56:36;9.27;;;7.30;;
505;SDS011;551;48.524;9.056;2023-10-19T08:59:02;12.20;;;7.53;;
505;SDS011;551;48.524;9.056;2023-10-19T09:01:28;7.20;;;6.50;;
505;SDS011;551;48.524;9.056;2023-10-19T09:03:57;10.43;;;7.90;;
505;SDS011;551;48.524;9.056;2023-10-19T09:06:23;13.03;;;7.60;;
505;SDS011;551;48.524;9.056;2023-10-19T09:08:49;12.27;;;7.83;;
505;SDS011;551;48.524;9.056;2023-10-19T09:11:14;8.20;;;7.33;;
505;SDS011;551;48.524;9.056;2023-10-19T09:13:44;8.73;;;7.30;;
505;SDS011;551;48.524;9.056;2023-10-19T09:16:12;8.70;;;7.80;;
505;SDS011;551;48.524;9.056;2023-10-19T09:18:41;12.40;;;8.90;;
505;SDS011;551;48.524;9.056;2023-10-19T09:21:07;9.10;;;7.47;;
505;SDS011;551;48.524;9.056;2023-10-19T09:23:36;9.90;;;7.93;;
505;SDS011;551;48.524;9.056;2023-10-19T09:26:03;8.13;;;7.33;;
505;SDS011;551;48.524;9.056;2023-10-19T09:28:30;8.80;;;6.87;;
505;SDS011;551;48.524;9.056;2023-10-19T09:30:58;11.27;;;7.60;;
505;SDS011;551;48.524;9.056;2023-10-19T09:33:25;8.63;;;6.80;;
505;SDS011;551;48.524;9.056;2023-10-19T09:35:52;10.43;;;8.20;;
505;SDS011;551;48.524;9.056;2023-10-19T09:38:19;8.70;;;7.43;;
505;SDS011;551;48.524;9.056;2023-10-19T09:40:47;9.70;;;7.73;;
505;SDS011;551;48.524;9.056;2023-10-19T09:43:22;8.80;;;7.90;;
505;SDS011;551;48.524;9.056;2023-10-19T09:45:58;9.60;;;6.87;;
505;SDS011;551;48.524;9.056;2023-10-19T09:48:30;10.53;;;7.50;;
505;SDS011;551;48.524;9.056;2023-10-19T09:51:00;10.57;;;8.77;;
505;SDS011;551;48.524;9.056;2023-10-19T09:53:28;8.83;;;6.90;;
505;SDS011;551;48.524;9.056;2023-10-19T09:55:56;9.07;;;7.50;;
505;SDS011;551;48.524;9.056;2023-10-19T09:58:26;10.80;;;8.63;;
505;SDS011;551;48.524;9.056;2023-10-19T10:00:56;8.10;;;6.67;;
505;SDS011;551;48.524;9.056;2023-10-19T10:06:09;10.13;;;7.83;;
505;SDS011;551;48.524;9.056;2023-10-19T10:08:39;13.23;;;7.53;;
505;SDS011;551;48.524;9.056;2023-10-19T10:11:14;9.50;;;7.60;;
505;SDS011;551;48.524;9.056;2023-10-19T10:13:47;10.57;;;7.90;;
505;SDS011;551;48.524;9.056;2023-10-19T10:16:21;9.60;;;8.60;;
505;SDS011;551;48.524;9.056;2023-10-19T10:18:49;12.73;;;7.50;;
505;SDS011;551;48.524;9.056;2023-10-19T10:21:22;9.20;;;7.73;;
505;SDS011;551;48.524;9.056;2023-10-19T10:23:54;10.80;;;8.40;;
505;SDS011;551;48.524;9.056;2023-10-19T10:26:23;8.93;;;6.67;;
505;SDS011;551;48.524;9.056;2023-10-19T10:29:07;8.43;;;7.40;;
505;SDS011;551;48.524;9.056;2023-10-19T10:31:49;8.70;;;7.00;;
505;SDS011;551;48.524;9.056;2023-10-19T10:34:57;15.23;;;7.40;;
505;SDS011;551;48.524;9.056;2023-10-19T10:37:07;10.30;;;7.80;;
505;SDS011;551;48.524;9.056;2023-10-19T10:39:35;12.50;;;7.80;;
505;SDS011;551;48.524;9.056;2023-10-19T10:42:04;8.63;;;7.80;;
505;SDS011;551;48.524;9.056;2023-10-19T10:44:35;11.97;;;8.67;;
505;SDS011;551;48.524;9.056;2023-10-19T10:47:00;11.93;;;7.93;;
505;SDS011;551;48.524;9.056;2023-10-19T10:49:26;22.10;;;9.03;;
505;SDS011;551;48.524;9.056;2023-10-19T10:51:53;18.10;;;9.70;;
505;SDS011;551;48.524;9.056;2023-10-19T10:54:21;15.23;;;9.47;;
505;SDS011;551;48.524;9.056;2023-10-19T10:56:46;13.40;;;9.50;;
505;SDS011;551;48.524;9.056;2023-10-19T10:59:13;17.67;;;9.90;;
505;SDS011;551;48.524;9.056;2023-10-19T11:01:39;15.73;;;9.97;;
505;SDS011;551;48.524;9.056;2023-10-19T11:04:10;15.87;;;10.80;;
505;SDS011;551;48.524;9.056;2023-10-19T11:06:46;17.73;;;11.17;;
505;SDS011;551;48.524;9.056;2023-10-19T11:09:17;11.33;;;10.03;;
505;SDS011;551;48.524;9.056;2023-10-19T11:11:46;15.87;;;10.87;;
505;SDS011;551;48.524;9.056;2023-10-19T11:14:14;14.83;;;11.40;;
505;SDS011;551;48.524;9.056;2023-10-19T11:16:40;15.67;;;10.53;;
505;SDS011;551;48.524;9.056;2023-10-19T11:19:08;13.40;;;11.03;;
505;SDS011;551;48.524;9.056;2023-10-19T11:21:34;19.60;;;12.70;;
505;SDS011;551;48.524;9.056;2023-10-19T11:24:00;14.50;;;10.67;;
505;SDS011;551;48.524;9.056;2023-10-19T11:26:27;12.30;;;10.30;;
505;SDS011;551;48.524;9.056;2023-10-19T11:28:59;15.27;;;10.90;;
505;SDS011;551;48.524;9.056;2023-10-19T11:31:26;12.83;;;10.20;;
505;SDS011;551;48.524;9.056;2023-10-19T11:33:54;13.93;;;12.07;;
505;SDS011;551;48.524;9.056;2023-10-19T11:36:26;15.13;;;10.03;;
505;SDS011;551;48.524;9.056;2023-10-19T11:38:52;19.93;;;11.03;;
505;SDS011;551;48.524;9.056;2023-10-19T11:41:18;12.83;;;10.87;;
505;SDS011;551;48.524;9.056;2023-10-19T11:43:44;12.07;;;10.43;;
505;SDS011;551;48.524;9.056;2023-10-19T11:46:10;13.10;;;10.60;;
505;SDS011;551;48.524;9.056;2023-10-19T11:48:37;11.60;;;9.30;;
505;SDS011;551;48.524;9.056;2023-10-19T11:51:04;17.50;;;10.40;;
505;SDS011;551;48.524;9.056;2023-10-19T11:53:34;13.13;;;10.73;;
505;SDS011;551;48.524;9.056;2023-10-19T11:56:04;16.03;;;9.60;;
505;SDS011;551;48.524;9.056;2023-10-19T11:58:36;16.47;;;10.80;;
505;SDS011;551;48.524;9.056;2023-10-19T12:01:09;13.53;;;10.80;;
505;SDS011;551;48.524;9.056;2023-10-19T12:03:38;16.17;;;11.83;;
505;SDS011;551;48.524;9.056;2023-10-19T12:06:10;15.97;;;12.50;;
505;SDS011;551;48.524;9.056;2023-10-19T12:08:38;16.00;;;11.80;;
505;SDS011;551;48.524;9.056;2023-10-19T12:11:05;14.30;;;12.20;;
505;SDS011;551;48.524;9.056;2023-10-19T12:13:40;15.17;;;10.43;;
505;SDS011;551;48.524;9.056;2023-10-19T12:16:08;12.23;;;11.03;;
505;SDS011;551;48.524;9.056;2023-10-19T12:18:37;13.33;;;10.67;;
505;SDS011;551;48.524;9.056;2023-10-19T12:21:07;14.53;;;11.47;;
505;SDS011;551;48.524;9.056;2023-10-19T12:23:36;17.03;;;10.53;;
505;SDS011;551;48.524;9.056;2023-10-19T12:26:05;14.37;;;10.80;;
505;SDS011;551;48.524;9.056;2023-10-19T12:28:36;10.87;;;9.73;;
505;SDS011;551;48.524;9.056;2023-10-19T12:31:03;13.53;;;9.17;;
505;SDS011;551;48.524;9.056;2023-10-19T12:33:30;10.87;;;9.30;;
505;SDS011;551;48.524;9.056;2023-10-19T12:35:56;14.37;;;9.00;;
505;SDS011;551;48.524;9.056;2023-10-19T12:38:24;11.27;;;9.40;;
505;SDS011;551;48.524;9.056;2023-10-19T12:40:50;12.07;;;9.60;;
505;SDS011;551;48.524;9.056;2023-10-19T12:43:17;10.77;;;8.77;;
505;SDS011;551;48.524;9.056;2023-10-19T12:45:50;12.43;;;9.30;;
505;SDS011;551;48.524;9.056;2023-10-19T12:48:16;16.23;;;10.53;;
505;SDS011;551;48.524;9.056;2023-10-19T12:50:42;10.67;;;9.57;;
505;SDS011;551;48.524;9.056;2023-10-19T12:53:08;11.40;;;9.50;;
505;SDS011;551;48.524;9.056;2023-10-19T12:55:34;11.33;;;8.60;;
505;SDS011;551;48.524;9.056;2023-10-19T12:58:02;13.13;;;9.40;;
505;SDS011;551;48.524;9.056;2023-10-19T13:00:36;10.17;;;8.90;;
505;SDS011;551;48.524;9.056;2023-10-19T13:03:13;12.33;;;9.30;;
505;SDS011;551;48.524;9.056;2023-10-19T13:05:39;9.10;;;7.80;;
505;SDS011;551;48.524;9.056;2023-10-19T13:08:09;8.77;;;7.87;;
505;SDS011;551;48.524;9.056;2023-10-19T13:10:38;9.83;;;7.70;;
505;SDS011;551;48.524;9.056;2023-10-19T13:13:07;10.47;;;9.40;;
505;SDS011;551;48.524;9.056;2023-10-19T13:15:36;9.70;;;8.20;;
505;SDS011;551;48.524;9.056;2023-10-19T13:18:03;8.77;;;7.97;;
505;SDS011;551;48.524;9.056;2023-10-19T13:20:31;10.17;;;8.30;;
505;SDS011;551;48.524;9.056;2023-10-19T13:23:03;14.40;;;8.30;;
505;SDS011;551;48.524;9.056;2023-10-19T13:25:30;10.10;;;8.20;;
505;SDS011;551;48.524;9.056;2023-10-19T13:28:14;13.43;;;8.90;;
505;SDS011;551;48.524;9.056;2023-10-19T13:30:41;10.97;;;7.97;;
505;SDS011;551;48.524;9.056;2023-10-19T13:33:08;12.23;;;9.37;;
505;SDS011;551;48.524;9.056;2023-10-19T13:35:35;14.83;;;8.43;;
505;SDS011;551;48.524;9.056;2023-10-19T13:38:02;13.10;;;9.00;;
505;SDS011;551;48.524;9.056;2023-10-19T13:40:29;9.60;;;7.83;;
505;SDS011;551;48.524;9.056;2023-10-19T13:42:55;9.90;;;8.73;;
505;SDS011;551;48.524;9.056;2023-10-19T13:45:21;11.20;;;8.50;;
505;SDS011;551;48.524;9.056;2023-10-19T13:47:47;13.47;;;10.00;;
505;SDS011;551;48.524;9.056;2023-10-19T13:50:12;12.70;;;9.37;;
505;SDS011;551;48.524;9.056;2023-10-19T13:52:38;12.40;;;9.03;;
505;SDS011;551;48.524;9.056;2023-10-19T13:55:04;11.60;;;9.40;;
505;SDS011;551;48.524;9.056;2023-10-19T13:57:32;12.10;;;9.00;;
505;SDS011;551;48.524;9.056;2023-10-19T13:59:58;14.43;;;8.30;;
505;SDS011;551;48.524;9.056;2023-10-19T14:02:23;11.43;;;7.90;;
505;SDS011;551;48.524;9.056;2023-10-19T14:04:49;10.77;;;9.07;;
505;SDS011;551;48.524;9.056;2023-10-19T14:07:16;11.90;;;9.47;;
505;SDS011;551;48.524;9.056;2023-10-19T14:09:42;19.83;;;12.23;;
505;SDS011;551;48.524;9.056;2023-10-19T14:12:08;19.33;;;11.10;;
505;SDS011;551;48.524;9.056;2023-10-19T14:14:34;10.40;;;9.13;;
505;SDS011;551;48.524;9.056;2023-10-19T14:17:00;16.47;;;11.50;;
505;SDS011;551;48.524;9.056;2023-10-19T14:19:26;12.37;;;8.97;;
505;SDS011;551;48.524;9.056;2023-10-19T14:21:51;10.60;;;8.30;;
505;SDS011;551;48.524;9.056;2023-10-19T14:24:17;9.70;;;6.60;;
505;SDS011;551;48.524;9.056;2023-10-19T14:26:45;12.40;;;10.20;;
505;SDS011;551;48.524;9.056;2023-10-19T14:29:11;15.80;;;10.60;;
505;SDS011;551;48.524;9.056;2023-10-19T14:31:38;10.53;;;8.90;;
505;SDS011;551;48.524;9.056;2023-10-19T14:34:04;11.40;;;10.00;;
505;SDS011;551;48.524;9.056;2023-10-19T14:36:30;10.00;;;8.97;;
505;SDS011;551;48.524;9.056;2023-10-19T14:38:55;12.57;;;8.17;;
505;SDS011;551;48.524;9.056;2023-10-19T14:41:21;11.83;;;8.90;;
505;SDS011;551;48.524;9.056;2023-10-19T14:43:47;13.50;;;9.93;;
505;SDS011;551;48.524;9.056;2023-10-19T14:46:12;15.70;;;11.07;;
505;SDS011;551;48.524;9.056;2023-10-19T14:48:38;14.50;;;9.47;;
505;SDS011;551;48.524;9.056;2023-10-19T14:51:04;14.70;;;8.37;;
505;SDS011;551;48.524;9.056;2023-10-19T14:53:30;16.03;;;11.40;;
505;SDS011;551;48.524;9.056;2023-10-19T14:55:56;12.00;;;9.47;;
505;SDS011;551;48.524;9.056;2023-10-19T14:58:27;13.00;;;9.57;;
505;SDS011;551;48.524;9.056;2023-10-19T15:00:54;15.43;;;11.57;;
505;SDS011;551;48.524;9.056;2023-10-19T15:03:28;16.97;;;11.47;;
505;SDS011;551;48.524;9.056;2023-10-19T15:05:56;13.63;;;12.10;;
505;SDS011;551;48.524;9.056;2023-10-19T15:08:24;15.60;;;11.30;;
505;SDS011;551;48.524;9.056;2023-10-19T15:10:51;12.20;;;11.00;;
505;SDS011;551;48.524;9.056;2023-10-19T15:13:19;15.73;;;12.27;;
505;SDS011;551;48.524;9.056;2023-10-19T15:15:44;11.30;;;9.90;;
505;SDS011;551;48.524;9.056;2023-10-19T15:18:10;14.73;;;11.83;;
505;SDS011;551;48.524;9.056;2023-10-19T15:20:35;11.13;;;9.70;;
505;SDS011;551;48.524;9.056;2023-10-19T15:23:01;13.47;;;10.93;;
505;SDS011;551;48.524;9.056;2023-10-19T15:25:27;16.93;;;10.67;;
505;SDS011;551;48.524;9.056;2023-10-19T15:27:53;12.30;;;9.77;;
505;SDS011;551;48.524;9.056;2023-10-19T15:30:19;13.87;;;11.23;;
505;SDS011;551;48.524;9.056;2023-10-19T15:32:49;14.30;;;10.23;;